createdAt,value
2022-11-27T00:01:41.842Z,100185.91
2022-11-27T00:04:12.028Z,100192.00
2022-11-27T00:06:43.424Z,100190.57
2022-11-27T00:09:18.041Z,100187.27
2022-11-27T00:11:45.997Z,100194.27
2022-11-27T00:14:19.104Z,100190.45
2022-11-27T00:16:47.097Z,100193.67
2022-11-27T00:19:15.057Z,100195.86
2022-11-27T00:21:43.193Z,100197.41
2022-11-27T00:24:14.702Z,100197.92
2022-11-27T00:26:42.766Z,100200.33
2022-11-27T00:29:10.466Z,100197.30
2022-11-27T00:31:38.504Z,100198.73
2022-11-27T00:34:10.261Z,100200.80
2022-11-27T00:36:46.606Z,100203.27
2022-11-27T00:39:19.316Z,100200.64
2022-11-27T00:41:47.154Z,100201.68
2022-11-27T00:44:14.952Z,100204.36
2022-11-27T00:46:42.834Z,100200.55
2022-11-27T00:49:13.620Z,100203.06
2022-11-27T00:51:44.423Z,100204.56
2022-11-27T00:54:12.156Z,100207.55
2022-11-27T00:56:41.900Z,100210.52
2022-11-27T00:59:11.089Z,100210.83
2022-11-27T01:01:44.199Z,100213.80
2022-11-27T01:04:16.863Z,100214.27
2022-11-27T01:06:48.378Z,100216.85
2022-11-27T01:09:16.945Z,100217.91
2022-11-27T01:11:46.147Z,100214.23
2022-11-27T01:14:19.218Z,100213.91
2022-11-27T01:16:46.985Z,100215.83
2022-11-27T01:19:17.870Z,100213.41
2022-11-27T01:21:49.341Z,100219.02
2022-11-27T01:24:20.707Z,100217.48
2022-11-27T01:26:49.839Z,100216.17
2022-11-27T01:29:17.592Z,100212.70
2022-11-27T01:31:45.674Z,100213.27
2022-11-27T01:34:19.399Z,100215.58
2022-11-27T01:36:49.058Z,100218.23
2022-11-27T01:39:21.567Z,100216.41
2022-11-27T01:41:50.044Z,100218.88
2022-11-27T01:44:28.435Z,100219.80
2022-11-27T01:47:15.552Z,100216.51
2022-11-27T01:49:53.861Z,100215.67
2022-11-27T01:52:36.404Z,100212.04
2022-11-27T01:55:20.802Z,100215.39
2022-11-27T01:58:02.529Z,100217.83
2022-11-27T02:00:30.324Z,100217.11
2022-11-27T02:02:58.356Z,100218.04
2022-11-27T02:05:33.564Z,100218.60
2022-11-27T02:08:10.205Z,100215.13
2022-11-27T02:10:53.822Z,100214.63
2022-11-27T02:13:41.225Z,100219.01
2022-11-27T02:16:37.527Z,100217.11
2022-11-27T02:19:37.757Z,100221.37
2022-11-27T02:22:33.841Z,100225.79
2022-11-27T02:25:28.614Z,100229.63
2022-11-27T02:28:20.073Z,100228.91
2022-11-27T02:30:58.083Z,100230.51
2022-11-27T02:33:34.656Z,100235.00
2022-11-27T02:36:12.531Z,100234.35
2022-11-27T02:39:01.932Z,100238.39
2022-11-27T02:41:38.823Z,100242.02
2022-11-27T02:44:12.994Z,100236.02
2022-11-27T02:46:44.872Z,100235.08
2022-11-27T02:49:19.167Z,100237.64
2022-11-27T02:51:55.627Z,100242.73
2022-11-27T02:54:31.656Z,100244.54
2022-11-27T02:57:04.946Z,100242.67
2022-11-27T02:59:37.234Z,100243.80
2022-11-27T03:02:22.514Z,100242.96
2022-11-27T03:04:56.511Z,100243.61
2022-11-27T03:07:41.439Z,100242.19
2022-11-27T03:10:47.224Z,100245.20
2022-11-27T03:13:18.066Z,100242.05
2022-11-27T03:16:05.572Z,100246.05
2022-11-27T03:18:47.726Z,100249.34
2022-11-27T03:21:43.704Z,100253.84
2022-11-27T03:24:13.595Z,100256.78
2022-11-27T03:26:44.780Z,100258.67
2022-11-27T03:29:38.711Z,100257.07
2022-11-27T03:32:12.964Z,100257.08
2022-11-27T03:34:43.185Z,100257.75
2022-11-27T03:37:11.705Z,100260.16
2022-11-27T03:39:42.504Z,100257.90
2022-11-27T03:42:41.657Z,100260.52
2022-11-27T03:45:21.579Z,100263.96
2022-11-27T03:48:14.479Z,100267.36
2022-11-27T03:50:51.254Z,100270.74
2022-11-27T03:53:47.481Z,100266.57
2022-11-27T03:56:44.434Z,100270.21
2022-11-27T03:59:20.554Z,100267.95
2022-11-27T04:01:51.028Z,100268.71
2022-11-27T04:04:19.013Z,100271.23
2022-11-27T04:06:46.948Z,100273.17
2022-11-27T04:09:15.471Z,100270.92
2022-11-27T04:11:43.473Z,100277.27
2022-11-27T04:14:11.436Z,100277.10
2022-11-27T04:16:39.256Z,100276.02
2022-11-27T04:19:09.725Z,100272.34
2022-11-27T04:21:37.666Z,100279.84
2022-11-27T04:24:05.534Z,100279.70
2022-11-27T04:26:33.253Z,100283.03
2022-11-27T04:29:01.058Z,100281.78
2022-11-27T04:31:28.863Z,100285.33
2022-11-27T04:33:56.626Z,100286.29
2022-11-27T04:36:24.393Z,100283.69
2022-11-27T04:38:52.106Z,100284.57
2022-11-27T04:41:19.844Z,100282.49
2022-11-27T04:43:47.550Z,100283.35
2022-11-27T04:46:15.574Z,100283.67
2022-11-27T04:48:46.439Z,100286.60
2022-11-27T04:51:14.216Z,100286.94
2022-11-27T04:53:45.044Z,100281.49
2022-11-27T04:56:12.749Z,100285.66
2022-11-27T04:58:40.982Z,100288.59
2022-11-27T05:01:12.876Z,100291.73
2022-11-27T05:03:40.900Z,100293.12
2022-11-27T05:06:12.481Z,100288.77
2022-11-27T05:08:40.295Z,100285.09
2022-11-27T05:11:15.602Z,100283.02
2022-11-27T05:13:47.326Z,100280.77
2022-11-27T05:16:15.253Z,100283.90
2022-11-27T05:18:46.523Z,100286.33
2022-11-27T05:21:14.291Z,100285.46
2022-11-27T05:23:42.011Z,100283.91
2022-11-27T05:26:09.755Z,100282.86
2022-11-27T05:28:37.491Z,100281.29
2022-11-27T05:31:05.398Z,100285.27
2022-11-27T05:33:38.463Z,100286.11
2022-11-27T05:36:06.598Z,100285.41
2022-11-27T05:38:34.321Z,100285.75
2022-11-27T05:41:02.064Z,100291.15
2022-11-27T05:43:30.021Z,100287.67
2022-11-27T05:45:57.866Z,100288.70
2022-11-27T05:48:25.639Z,100291.14
2022-11-27T05:50:53.433Z,100298.33
2022-11-27T05:53:21.127Z,100299.05
2022-11-27T05:55:48.886Z,100299.58
2022-11-27T05:58:20.304Z,100301.50
2022-11-27T06:00:48.040Z,100306.75
2022-11-27T06:03:15.804Z,100302.03
2022-11-27T06:05:47.298Z,100306.41
2022-11-27T06:08:15.078Z,100304.14
2022-11-27T06:10:43.062Z,100304.81
2022-11-27T06:13:16.597Z,100307.23
2022-11-27T06:15:44.583Z,100316.29
2022-11-27T06:18:16.458Z,100310.16
2022-11-27T06:20:46.774Z,100312.28
2022-11-27T06:23:19.103Z,100318.23
2022-11-27T06:25:50.517Z,100318.56
2022-11-27T06:28:18.493Z,100315.41
2022-11-27T06:30:49.879Z,100316.97
2022-11-27T06:33:17.840Z,100317.98
2022-11-27T06:35:45.801Z,100321.64
2022-11-27T06:38:13.542Z,100323.54
2022-11-27T06:40:41.540Z,100322.30
2022-11-27T06:43:09.275Z,100320.36
2022-11-27T06:45:37.047Z,100316.30
2022-11-27T06:48:05.078Z,100318.20
2022-11-27T06:50:34.568Z,100321.83
2022-11-27T06:53:02.314Z,100329.67
2022-11-27T06:55:30.046Z,100324.27
2022-11-27T06:57:57.998Z,100326.88
2022-11-27T07:00:25.916Z,100327.40
2022-11-27T07:02:59.451Z,100328.45
2022-11-27T07:05:30.916Z,100327.58
2022-11-27T07:08:02.657Z,100326.34
2022-11-27T07:10:36.730Z,100324.55
2022-11-27T07:13:04.616Z,100323.14
2022-11-27T07:15:36.454Z,100313.85
2022-11-27T07:18:04.445Z,100310.02
2022-11-27T07:20:35.870Z,100305.27
2022-11-27T07:23:03.590Z,100306.98
2022-11-27T07:25:40.157Z,100309.09
2022-11-27T07:28:08.110Z,100310.48
2022-11-27T07:30:35.907Z,100310.16
2022-11-27T07:33:07.470Z,100308.30
2022-11-27T07:35:35.482Z,100308.80
2022-11-27T07:38:03.216Z,100309.44
2022-11-27T07:40:30.953Z,100306.43
2022-11-27T07:43:00.447Z,100302.38
2022-11-27T07:45:28.592Z,100303.79
2022-11-27T07:47:59.177Z,100300.86
2022-11-27T07:50:28.725Z,100297.38
2022-11-27T07:52:56.456Z,100291.76
2022-11-27T07:55:24.241Z,100295.23
2022-11-27T07:57:51.955Z,100293.98
2022-11-27T08:00:23.341Z,100295.54
2022-11-27T08:02:51.136Z,100297.78
2022-11-27T08:05:20.709Z,100300.56
2022-11-27T08:07:55.389Z,100299.33
2022-11-27T08:10:23.188Z,100298.08
2022-11-27T08:12:51.168Z,100304.90
2022-11-27T08:15:19.163Z,100306.64
2022-11-27T08:17:46.918Z,100302.80
2022-11-27T08:20:14.753Z,100305.23
2022-11-27T08:22:42.538Z,100302.44
2022-11-27T08:25:10.283Z,100298.80
2022-11-27T08:27:38.093Z,100296.00
2022-11-27T08:30:10.109Z,100297.39
2022-11-27T08:32:41.676Z,100302.02
2022-11-27T08:35:11.755Z,100293.93
2022-11-27T08:37:44.187Z,100291.25
2022-11-27T08:40:12.094Z,100291.54
2022-11-27T08:42:40.079Z,100290.41
2022-11-27T08:45:09.028Z,100288.42
2022-11-27T08:47:36.900Z,100288.52
2022-11-27T08:50:09.062Z,100284.79
2022-11-27T08:52:36.924Z,100283.16
2022-11-27T08:55:05.104Z,100285.20
2022-11-27T08:57:32.915Z,100283.77
2022-11-27T09:00:00.759Z,100282.48
2022-11-27T09:02:28.562Z,100281.90
2022-11-27T09:05:02.737Z,100286.40
2022-11-27T09:07:30.524Z,100288.42
2022-11-27T09:09:58.350Z,100286.11
2022-11-27T09:12:29.911Z,100284.30
2022-11-27T09:14:57.634Z,100282.84
2022-11-27T09:17:25.429Z,100287.69
2022-11-27T09:19:53.211Z,100283.80
2022-11-27T09:22:20.983Z,100283.08
2022-11-27T09:24:48.818Z,100280.57
2022-11-27T09:27:16.512Z,100280.36
2022-11-27T09:29:44.495Z,100279.49
2022-11-27T09:32:12.834Z,100276.71
2022-11-27T09:34:41.099Z,100279.14
2022-11-27T09:37:09.423Z,100274.73
2022-11-27T09:39:38.604Z,100270.73
2022-11-27T09:42:18.791Z,100268.60
2022-11-27T09:44:58.115Z,100263.46
2022-11-27T09:47:39.814Z,100254.81
2022-11-27T09:50:24.921Z,100257.36
2022-11-27T09:53:01.590Z,100261.63
2022-11-27T09:55:41.663Z,100264.84
2022-11-27T09:58:38.096Z,100263.73
2022-11-27T10:01:14.614Z,100265.04
2022-11-27T10:03:48.161Z,100259.94
2022-11-27T10:06:46.481Z,100258.67
2022-11-27T10:09:49.298Z,100256.38
2022-11-27T10:12:35.739Z,100257.29
2022-11-27T10:15:19.416Z,100257.28
2022-11-27T10:17:57.881Z,100250.38
2022-11-27T10:20:34.076Z,100246.18
2022-11-27T10:23:23.978Z,100248.88
2022-11-27T10:25:59.043Z,100244.27
2022-11-27T10:29:13.207Z,100240.88
2022-11-27T10:31:47.057Z,100237.42
2022-11-27T10:34:45.114Z,100235.56
2022-11-27T10:37:13.133Z,100226.88
2022-11-27T10:39:50.785Z,100221.89
2022-11-27T10:42:44.672Z,100217.57
2022-11-27T10:45:35.554Z,100222.34
2022-11-27T10:48:03.733Z,100214.45
2022-11-27T10:50:31.611Z,100217.95
2022-11-27T10:53:12.106Z,100225.61
2022-11-27T10:56:15.585Z,100223.40
2022-11-27T10:59:06.061Z,100219.66
2022-11-27T11:01:55.080Z,100221.71
2022-11-27T11:04:38.717Z,100225.02
2022-11-27T11:07:30.009Z,100227.64
2022-11-27T11:09:57.900Z,100229.77
2022-11-27T11:12:25.913Z,100231.36
2022-11-27T11:15:02.346Z,100232.82
2022-11-27T11:17:41.854Z,100234.30
2022-11-27T11:20:26.103Z,100229.23
2022-11-27T11:22:56.568Z,100228.91
2022-11-27T11:25:24.543Z,100230.27
2022-11-27T11:27:56.629Z,100228.84
2022-11-27T11:30:29.939Z,100224.05
2022-11-27T11:33:06.844Z,100226.95
2022-11-27T11:35:39.129Z,100227.23
2022-11-27T11:38:18.348Z,100229.66
2022-11-27T11:41:05.410Z,100226.38
2022-11-27T11:43:38.596Z,100221.61
2022-11-27T11:46:17.482Z,100223.70
2022-11-27T11:49:26.823Z,100224.36
2022-11-27T11:52:27.676Z,100228.02
2022-11-27T11:55:29.483Z,100227.65
2022-11-27T11:58:12.522Z,100225.71
2022-11-27T12:01:28.043Z,100223.68
2022-11-27T12:03:59.607Z,100224.61
2022-11-27T12:06:38.684Z,100218.08
2022-11-27T12:09:38.205Z,100213.62
2022-11-27T12:12:32.683Z,100216.52
2022-11-27T12:15:08.948Z,100213.33
2022-11-27T12:18:03.778Z,100215.89
2022-11-27T12:20:39.746Z,100213.38
2022-11-27T12:23:23.012Z,100212.29
2022-11-27T12:26:07.921Z,100211.92
2022-11-27T12:28:40.296Z,100209.48
2022-11-27T12:31:29.991Z,100209.64
2022-11-27T12:34:28.838Z,100210.70
2022-11-27T12:37:14.743Z,100206.48
2022-11-27T12:40:13.919Z,100205.79
2022-11-27T12:43:20.255Z,100199.45
2022-11-27T12:45:57.394Z,100201.16
2022-11-27T12:48:36.790Z,100195.58
2022-11-27T12:51:30.267Z,100195.95
2022-11-27T12:54:14.541Z,100196.71
2022-11-27T12:56:55.516Z,100193.42
2022-11-27T12:59:40.520Z,100192.60
2022-11-27T13:02:27.031Z,100191.23
2022-11-27T13:05:24.835Z,100185.48
2022-11-27T13:08:10.771Z,100184.07
2022-11-27T13:10:53.439Z,100180.60
2022-11-27T13:13:35.659Z,100181.33
2022-11-27T13:16:11.147Z,100184.30
2022-11-27T13:18:52.192Z,100182.23
2022-11-27T13:21:30.182Z,100183.64
2022-11-27T13:24:03.037Z,100183.29
2022-11-27T13:26:48.804Z,100182.80
2022-11-27T13:29:41.234Z,100182.28
2022-11-27T13:32:19.911Z,100179.10
2022-11-27T13:34:51.542Z,100178.89
2022-11-27T13:37:41.344Z,100182.86
2022-11-27T13:40:40.794Z,100180.41
2022-11-27T13:43:40.712Z,100180.08
2022-11-27T13:46:25.272Z,100176.45
2022-11-27T13:49:03.484Z,100175.08
2022-11-27T13:51:39.468Z,100173.67
2022-11-27T13:54:17.129Z,100175.55
2022-11-27T13:56:46.322Z,100169.74
2022-11-27T13:59:25.561Z,100171.12
2022-11-27T14:02:07.145Z,100170.55
2022-11-27T14:04:35.892Z,100165.31
2022-11-27T14:07:13.742Z,100164.62
2022-11-27T14:09:47.175Z,100171.59
2022-11-27T14:12:33.170Z,100169.30
2022-11-27T14:15:07.967Z,100164.59
2022-11-27T14:17:42.493Z,100166.50
2022-11-27T14:20:11.955Z,100163.18
2022-11-27T14:23:14.744Z,100163.40
2022-11-27T14:25:42.672Z,100168.84
2022-11-27T14:28:22.041Z,100170.23
2022-11-27T14:30:55.660Z,100156.04
2022-11-27T14:33:27.651Z,100156.78
2022-11-27T14:35:58.030Z,100157.34
2022-11-27T14:38:29.048Z,100157.52
2022-11-27T14:41:20.289Z,100153.45
2022-11-27T14:44:15.003Z,100152.72
2022-11-27T14:46:42.919Z,100153.05
2022-11-27T14:49:26.217Z,100150.41
2022-11-27T14:52:01.322Z,100148.47
2022-11-27T14:54:35.644Z,100149.68
2022-11-27T14:57:08.774Z,100150.38
2022-11-27T14:59:36.526Z,100144.92
2022-11-27T15:02:07.088Z,100143.02
2022-11-27T15:04:39.143Z,100148.61
2022-11-27T15:07:29.510Z,100150.36
2022-11-27T15:10:05.187Z,100147.39
2022-11-27T15:12:50.136Z,100147.75
2022-11-27T15:15:30.305Z,100152.13
2022-11-27T15:18:00.839Z,100149.05
2022-11-27T15:20:42.034Z,100151.73
2022-11-27T15:23:28.885Z,100149.42
2022-11-27T15:25:59.930Z,100154.83
2022-11-27T15:28:43.438Z,100153.16
2022-11-27T15:31:35.244Z,100156.64
2022-11-27T15:34:23.712Z,100155.09
2022-11-27T15:37:01.677Z,100154.65
2022-11-27T15:39:52.703Z,100154.71
2022-11-27T15:42:24.684Z,100156.33
2022-11-27T15:44:58.353Z,100154.19
2022-11-27T15:47:37.339Z,100151.33
2022-11-27T15:50:15.115Z,100151.46
2022-11-27T15:52:44.959Z,100146.80
2022-11-27T15:55:18.921Z,100145.48
2022-11-27T15:57:47.199Z,100147.33
2022-11-27T16:00:22.141Z,100145.10
2022-11-27T16:02:50.052Z,100139.02
2022-11-27T16:05:22.034Z,100139.05
2022-11-27T16:07:54.727Z,100141.61
2022-11-27T16:10:24.090Z,100138.91
2022-11-27T16:12:57.454Z,100134.44
2022-11-27T16:15:30.041Z,100131.80
2022-11-27T16:18:01.209Z,100131.60
2022-11-27T16:20:28.962Z,100127.70
2022-11-27T16:22:56.861Z,100128.16
2022-11-27T16:25:25.811Z,100123.12
2022-11-27T16:27:59.389Z,100120.14
2022-11-27T16:30:34.810Z,100117.83
2022-11-27T16:33:03.225Z,100116.55
2022-11-27T16:35:30.969Z,100109.84
2022-11-27T16:37:58.995Z,100108.91
2022-11-27T16:40:27.529Z,100112.39
2022-11-27T16:42:55.278Z,100110.77
2022-11-27T16:45:23.107Z,100110.00
2022-11-27T16:47:51.229Z,100109.11
2022-11-27T16:50:19.056Z,100107.73
2022-11-27T16:52:53.986Z,100106.66
2022-11-27T16:55:23.167Z,100103.87
2022-11-27T16:57:51.568Z,100103.90
2022-11-27T17:00:19.684Z,100109.21
2022-11-27T17:02:47.492Z,100113.61
2022-11-27T17:05:15.404Z,100110.48
2022-11-27T17:07:43.185Z,100111.77
2022-11-27T17:10:11.046Z,100112.85
2022-11-27T17:12:39.279Z,100112.80
2022-11-27T17:15:07.611Z,100111.17
2022-11-27T17:17:40.096Z,100109.27
2022-11-27T17:20:08.878Z,100106.95
2022-11-27T17:22:36.731Z,100105.69
2022-11-27T17:25:05.830Z,100104.77
2022-11-27T17:27:34.814Z,100100.52
2022-11-27T17:30:02.577Z,100100.39
2022-11-27T17:32:30.465Z,100101.79
2022-11-27T17:34:58.208Z,100101.08
2022-11-27T17:37:26.027Z,100097.17
2022-11-27T17:39:54.022Z,100097.30
2022-11-27T17:42:22.961Z,100096.41
2022-11-27T17:44:52.349Z,100094.27
2022-11-27T17:47:20.151Z,100094.13
2022-11-27T17:49:47.948Z,100094.89
2022-11-27T17:52:15.750Z,100093.77
2022-11-27T17:54:43.479Z,100091.41
2022-11-27T17:57:11.239Z,100093.08
2022-11-27T17:59:39.271Z,100096.65
2022-11-27T18:02:12.463Z,100095.34
2022-11-27T18:04:41.775Z,100094.48
2022-11-27T18:07:12.200Z,100093.46
2022-11-27T18:09:40.448Z,100092.82
2022-11-27T18:12:09.138Z,100086.04
2022-11-27T18:14:37.015Z,100089.95
2022-11-27T18:17:05.298Z,100086.66
2022-11-27T18:19:34.119Z,100082.98
2022-11-27T18:22:03.330Z,100081.45
2022-11-27T18:24:31.080Z,100078.00
2022-11-27T18:27:14.312Z,100075.48
2022-11-27T18:29:45.476Z,100073.31
2022-11-27T18:32:17.607Z,100072.09
2022-11-27T18:34:46.588Z,100071.65
2022-11-27T18:37:14.423Z,100070.89
2022-11-27T18:39:45.252Z,100069.88
2022-11-27T18:42:15.362Z,100071.92
2022-11-27T18:44:45.397Z,100071.16
2022-11-27T18:47:16.203Z,100069.39
2022-11-27T18:49:45.220Z,100065.20
2022-11-27T18:52:14.228Z,100064.34
2022-11-27T18:54:44.211Z,100067.47
2022-11-27T18:57:11.991Z,100066.36
2022-11-27T18:59:44.371Z,100067.18
2022-11-27T19:02:40.584Z,100065.39
2022-11-27T19:05:09.905Z,100065.02
2022-11-27T19:07:38.293Z,100062.27
2022-11-27T19:10:07.317Z,100064.65
2022-11-27T19:12:37.787Z,100060.54
2022-11-27T19:15:06.071Z,100058.86
2022-11-27T19:17:33.915Z,100054.67
2022-11-27T19:20:01.886Z,100055.70
2022-11-27T19:22:29.661Z,100053.58
2022-11-27T19:24:57.473Z,100054.61
2022-11-27T19:27:25.576Z,100052.46
2022-11-27T19:29:53.889Z,100055.05
2022-11-27T19:32:21.763Z,100055.18
2022-11-27T19:34:50.894Z,100053.40
2022-11-27T19:37:33.166Z,100056.85
2022-11-27T19:40:02.196Z,100050.88
2022-11-27T19:42:31.448Z,100046.52
2022-11-27T19:44:59.252Z,100045.19
2022-11-27T19:47:27.035Z,100044.87
2022-11-27T19:49:56.040Z,100043.48
2022-11-27T19:52:23.796Z,100039.54
2022-11-27T19:54:51.652Z,100039.74
2022-11-27T19:57:19.463Z,100040.08
2022-11-27T19:59:47.318Z,100040.71
2022-11-27T20:02:15.457Z,100038.75
2022-11-27T20:04:44.163Z,100035.46
2022-11-27T20:07:12.364Z,100031.52
2022-11-27T20:09:40.163Z,100028.78
2022-11-27T20:12:07.948Z,100028.80
2022-11-27T20:14:36.053Z,100026.85
2022-11-27T20:17:03.973Z,100025.47
2022-11-27T20:19:31.859Z,100021.01
2022-11-27T20:21:59.752Z,100022.38
2022-11-27T20:24:27.540Z,100022.27
2022-11-27T20:26:55.456Z,100023.72
2022-11-27T20:29:23.265Z,100024.77
2022-11-27T20:31:51.284Z,100021.94
2022-11-27T20:34:22.338Z,100020.16
2022-11-27T20:36:50.410Z,100027.97
2022-11-27T20:39:21.720Z,100028.79
2022-11-27T20:41:51.839Z,100027.83
2022-11-27T20:44:22.522Z,100028.82
2022-11-27T20:46:50.728Z,100024.02
2022-11-27T20:49:18.564Z,100022.89
2022-11-27T20:51:49.119Z,100022.98
2022-11-27T20:54:18.273Z,100020.46
2022-11-27T20:56:46.801Z,100020.94
2022-11-27T20:59:14.709Z,100017.73
2022-11-27T21:01:42.649Z,100015.40
2022-11-27T21:04:19.897Z,100015.36
2022-11-27T21:06:48.236Z,100010.98
2022-11-27T21:09:17.090Z,100006.60
2022-11-27T21:11:44.990Z,100008.83
2022-11-27T21:14:14.917Z,100013.35
2022-11-27T21:16:48.274Z,100008.05
2022-11-27T21:19:18.550Z,100010.29
2022-11-27T21:21:47.639Z,100007.86
2022-11-27T21:24:15.705Z,100005.89
2022-11-27T21:26:43.861Z,100003.25
2022-11-27T21:29:13.217Z,100005.64
2022-11-27T21:31:46.518Z,100007.67
2022-11-27T21:34:15.802Z,100013.00
2022-11-27T21:36:43.717Z,100008.33
2022-11-27T21:39:20.803Z,100007.05
2022-11-27T21:41:51.361Z,100006.29
2022-11-27T21:44:20.738Z,100006.59
2022-11-27T21:46:50.539Z,100004.95
2022-11-27T21:49:21.018Z,100004.71
2022-11-27T21:51:54.513Z,100003.73
2022-11-27T21:54:23.049Z,100005.41
2022-11-27T21:56:52.799Z,100001.80
2022-11-27T21:59:21.215Z,99998.77
2022-11-27T22:01:49.721Z,99995.03
2022-11-27T22:04:18.680Z,99994.44
2022-11-27T22:06:47.135Z,99994.02
2022-11-27T22:09:16.223Z,99994.30
2022-11-27T22:11:46.714Z,99997.04
2022-11-27T22:14:16.151Z,99993.66
2022-11-27T22:16:47.126Z,99995.19
2022-11-27T22:19:16.000Z,100000.21
2022-11-27T22:21:44.886Z,99999.48
2022-11-27T22:24:19.030Z,99996.31
2022-11-27T22:26:49.166Z,99997.00
2022-11-27T22:29:17.041Z,99991.73
2022-11-27T22:31:44.957Z,99988.02
2022-11-27T22:34:13.502Z,99986.76
2022-11-27T22:36:41.889Z,99985.15
2022-11-27T22:39:09.919Z,99984.59
2022-11-27T22:41:40.183Z,99980.70
2022-11-27T22:44:11.066Z,99976.69
2022-11-27T22:46:41.523Z,99978.77
2022-11-27T22:49:12.272Z,99972.45
2022-11-27T22:51:41.793Z,99969.84
2022-11-27T22:54:13.902Z,99967.54
2022-11-27T22:56:41.766Z,99967.70
2022-11-27T23:01:58.365Z,99968.38
2022-11-27T23:04:26.758Z,99969.60
2022-11-27T23:06:54.591Z,99966.42
2022-11-27T23:09:22.585Z,99964.64
2022-11-27T23:11:50.456Z,99967.24
2022-11-27T23:14:19.063Z,99965.83
2022-11-27T23:16:46.984Z,99965.32
2022-11-27T23:19:15.336Z,99966.38
2022-11-27T23:21:43.143Z,99960.42
2022-11-27T23:24:15.629Z,99960.13
2022-11-27T23:26:44.185Z,99958.39
2022-11-27T23:29:12.909Z,99957.52
2022-11-27T23:31:42.832Z,99953.64
2022-11-27T23:34:15.466Z,99949.96
2022-11-27T23:36:43.973Z,99947.48
2022-11-27T23:39:13.926Z,99948.77
2022-11-27T23:41:43.044Z,99948.55
2022-11-27T23:44:11.218Z,99947.07
2022-11-27T23:46:39.406Z,99944.44
2022-11-27T23:49:07.300Z,99946.70
2022-11-27T23:51:35.697Z,99940.92
2022-11-27T23:54:08.400Z,99941.26
2022-11-27T23:56:38.326Z,99938.11
2022-11-27T23:59:06.173Z,99931.29
